Christmas, FL (32709)

12:23 AM EST on February 08, 2016 (GMT -0500)
AE2A Wedgefield | | Change Station
CLOSE
Current Station
Personal Weather Station
Location: Orlando, FL
Elevation: 75 ft
Nearby Weather Stations

Elev 75 ft 28.50 °N, 81.08 °W | Updated 1 minute ago

Clear
Clear
43.6 °F
Feels Like 44 °F
N
0.0
Wind Variable Wind from North
Gusts 1.0 mph

Today
High -- | Low -- °F
--% Chance of Precip.
Yesterday
High -- | Low -- °F
Precip. -- in
Pressure 30.09 in
Visibility 10.0 miles
Clouds Clear
Windchill 44 °F
Dew Point 39 °F
Humidity 84%
Rainfall 0.00 in
Snow Depth Not available.
7:07 AM 6:08 PM
Waning Crescent, 0% visible
METAR KTTS 080458Z AUTO 30006KT 10SM CLR 08/03 A3007 RMK AO2 SLP187 T00750028 401500075
Pressure 30.09 in
Visibility 10.0 miles
Clouds Clear
Windchill 44 °F
Dew Point 39 °F
Humidity 84%
Rainfall 0.00 in
Snow Depth Not available.
7:07 AM 6:08 PM
Waning Crescent, 0% visible
METAR KTTS 080458Z AUTO 30006KT 10SM CLR 08/03 A3007 RMK AO2 SLP187 T00750028 401500075

10-Day Weather Forecast

Almanac

Astronomy

Feb. 08, 2016 Rise Set
Actual Time
Civil Twilight
Nautical Twilight
Astronomical Twilight
Moon
Length of Visible Light
Length of Day
Tomorrow will be .
, % of the Moon is Illuminated

Today's Extremes

State Highs State Lows

Community

WunderPhotos

Upload Photos

1,891,384 photos uploaded!

WunderBlog® & News

Nearby

Air Quality

  Air Quality AQ Index Pollutant
Not available.

Snow Depth

Station Depth Elevation

Earthquake Activity

City Distance Mag. Time & Date
Minimum magnitude displayed is 2.5.

Coastal Water Temperatures

Place Temperature

Stations

Nearby Weather Stations

Station Location Temp. Windchill Dew Point Humidity Wind Precip. Elev Updated Type
                   

Watches & Warnings

There are currently no watches in effect.